Time,TemperatureF,DewpointF,PressureIn,WindDirection,WindDirectionDegrees,WindSpeedMPH,WindSpeedGustMPH,Humidity,HourlyPrecipIn,Conditions,Clouds,dailyrainin,SoftwareType,DateUTC
2013-01-10 00:02:00,13.3,2.7,29.38,SSW,208,7.4,7.4,62,0.00,,CLR,0.00,VWS V14.01,2013-01-10 06:02:00,
2013-01-10 00:07:00,13.3,3.0,29.38,SSW,208,7.4,7.4,63,0.00,,CLR,0.00,VWS V14.01,2013-01-10 06:07:00,
2013-01-10 00:12:00,13.6,3.4,29.38,SSW,208,7.4,7.4,63,0.00,,CLR,0.00,VWS V14.01,2013-01-10 06:12:00,
2013-01-10 00:17:00,14.2,3.9,29.38,SSW,208,7.4,7.4,63,0.00,,CLR,0.00,VWS V14.01,2013-01-10 06:17:00,
2013-01-10 00:22:00,14.9,5.3,29.38,SSW,208,7.4,7.4,65,0.00,,CLR,0.00,VWS V14.01,2013-01-10 06:22:00,
2013-01-10 00:27:00,15.8,6.1,29.38,SSW,208,7.4,7.4,65,0.00,,CLR,0.00,VWS V14.01,2013-01-10 06:27:00,
2013-01-10 00:32:00,16.5,7.1,29.38,SSW,208,7.4,7.4,66,0.00,,CLR,0.00,VWS V14.01,2013-01-10 06:32:00,
2013-01-10 00:37:00,16.7,7.3,29.38,SSW,208,7.4,7.4,66,0.00,,CLR,0.00,VWS V14.01,2013-01-10 06:37:00,
2013-01-10 00:42:00,16.7,7.3,29.38,SSW,208,7.4,7.4,66,0.00,,CLR,0.00,VWS V14.01,2013-01-10 06:42:00,
2013-01-10 00:47:00,16.7,7.3,29.38,SSW,208,7.4,7.4,66,0.00,,CLR,0.00,VWS V14.01,2013-01-10 06:47:00,
2013-01-10 00:52:00,16.9,7.5,29.41,SSW,208,7.4,7.4,66,0.00,,CLR,0.00,VWS V14.01,2013-01-10 06:52:00,
2013-01-10 00:57:00,16.7,7.3,29.41,SSW,208,7.4,7.4,66,0.00,,CLR,0.00,VWS V14.01,2013-01-10 06:57:00,
2013-01-10 01:02:00,16.5,7.1,29.41,SSW,208,7.4,7.4,66,0.00,,CLR,0.00,VWS V14.01,2013-01-10 07:02:00,
2013-01-10 01:07:00,16.5,7.5,29.41,SSW,208,7.4,7.4,67,0.00,,CLR,0.00,VWS V14.01,2013-01-10 07:07:00,
2013-01-10 01:12:00,16.5,7.5,29.41,SSW,208,7.4,7.4,67,0.00,,CLR,0.00,VWS V14.01,2013-01-10 07:12:00,
2013-01-10 01:17:00,16.5,7.5,29.41,SSW,208,7.4,7.4,67,0.00,,CLR,0.00,VWS V14.01,2013-01-10 07:17:00,
2013-01-10 01:22:00,16.5,7.5,29.41,SSW,208,7.4,7.4,67,0.00,,CLR,0.00,VWS V14.01,2013-01-10 07:22:00,
2013-01-10 01:27:00,16.7,8.0,29.41,SSW,208,7.4,7.4,68,0.00,,CLR,0.00,VWS V14.01,2013-01-10 07:27:00,
2013-01-10 01:32:00,16.9,8.1,29.41,SSW,208,7.4,7.4,68,0.00,,CLR,0.00,VWS V14.01,2013-01-10 07:32:00,
2013-01-10 01:37:00,17.0,8.3,29.41,SSW,208,7.4,7.4,68,0.00,,CLR,0.00,VWS V14.01,2013-01-10 07:37:00,
2013-01-10 01:42:00,17.0,8.6,29.41,SSW,208,7.4,7.4,69,0.00,,CLR,0.00,VWS V14.01,2013-01-10 07:42:00,
2013-01-10 01:47:00,17.2,8.5,29.41,SSW,208,7.4,7.4,68,0.00,,CLR,0.00,VWS V14.01,2013-01-10 07:47:00,
2013-01-10 01:52:00,17.0,8.3,29.41,SSW,208,7.4,7.4,68,0.00,,CLR,0.00,VWS V14.01,2013-01-10 07:52:00,
2013-01-10 01:57:00,16.7,8.0,29.41,SSW,208,7.4,7.4,68,0.00,,CLR,0.00,VWS V14.01,2013-01-10 07:57:00,
2013-01-10 02:02:00,16.5,7.8,29.41,SSW,208,7.4,7.4,68,0.00,,CLR,0.00,VWS V14.01,2013-01-10 08:02:00,
2013-01-10 02:07:00,16.5,7.8,29.41,SSW,208,7.4,7.4,68,0.00,,CLR,0.00,VWS V14.01,2013-01-10 08:07:00,
2013-01-10 02:12:00,16.3,7.6,29.41,SSW,208,7.4,7.4,68,0.00,,CLR,0.00,VWS V14.01,2013-01-10 08:12:00,
2013-01-10 02:17:00,16.1,7.4,29.41,SSW,208,7.4,7.4,68,0.00,,CLR,0.00,VWS V14.01,2013-01-10 08:17:00,
2013-01-10 02:22:00,15.8,7.1,29.41,SSW,208,7.4,7.4,68,0.00,,CLR,0.00,VWS V14.01,2013-01-10 08:22:00,
2013-01-10 02:27:00,15.6,7.3,29.41,SSW,208,7.4,7.4,69,0.00,,CLR,0.00,VWS V14.01,2013-01-10 08:27:00,
2013-01-10 02:32:00,15.6,7.3,29.41,SSW,208,7.4,7.4,69,0.00,,CLR,0.00,VWS V14.01,2013-01-10 08:32:00,
2013-01-10 02:37:00,15.4,7.1,29.41,SSW,208,7.4,7.4,69,0.00,,CLR,0.00,VWS V14.01,2013-01-10 08:37:00,
2013-01-10 02:42:00,15.6,7.3,29.41,SSW,208,7.4,7.4,69,0.00,,CLR,0.00,VWS V14.01,2013-01-10 08:42:00,
2013-01-10 02:47:00,15.8,7.4,29.41,SSW,208,7.4,7.4,69,0.00,,CLR,0.00,VWS V14.01,2013-01-10 08:47:00,
2013-01-10 02:52:00,15.8,7.8,29.41,SSW,208,7.4,7.4,70,0.00,,CLR,0.00,VWS V14.01,2013-01-10 08:52:00,
2013-01-10 02:57:00,16.3,8.3,29.41,SSW,208,7.4,7.4,70,0.00,,CLR,0.00,VWS V14.01,2013-01-10 08:57:00,
2013-01-10 03:02:00,17.0,9.3,29.41,SSW,208,7.4,7.4,71,0.00,,CLR,0.00,VWS V14.01,2013-01-10 09:02:00,
2013-01-10 03:07:00,17.6,9.8,29.41,SSW,208,7.4,7.4,71,0.00,,CLR,0.00,VWS V14.01,2013-01-10 09:07:00,
2013-01-10 03:12:00,17.9,10.1,29.41,SSW,208,7.4,7.4,71,0.00,,CLR,0.00,VWS V14.01,2013-01-10 09:12:00,
2013-01-10 03:17:00,18.1,10.3,29.41,SSW,208,7.4,7.4,71,0.00,,CLR,0.00,VWS V14.01,2013-01-10 09:17:00,
2013-01-10 03:22:00,18.5,11.0,29.41,SSW,208,7.4,7.4,72,0.00,,CLR,0.00,VWS V14.01,2013-01-10 09:22:00,
2013-01-10 03:27:00,18.8,11.3,29.41,SSW,208,7.4,7.4,72,0.00,,CLR,0.00,VWS V14.01,2013-01-10 09:27:00,
2013-01-10 03:32:00,19.2,11.7,29.41,SSW,208,7.4,7.4,72,0.00,,CLR,0.00,VWS V14.01,2013-01-10 09:32:00,
2013-01-10 03:37:00,19.2,11.7,29.41,SSW,208,7.4,7.4,72,0.00,,CLR,0.00,VWS V14.01,2013-01-10 09:37:00,
2013-01-10 03:42:00,19.6,12.0,29.41,SSW,208,7.4,7.4,72,0.00,,CLR,0.00,VWS V14.01,2013-01-10 09:42:00,
2013-01-10 03:47:00,19.9,12.7,29.38,SSW,208,7.4,7.4,73,0.00,,CLR,0.00,VWS V14.01,2013-01-10 09:47:00,
2013-01-10 03:52:00,20.6,13.7,29.38,SSW,208,7.4,7.4,74,0.00,,CLR,0.00,VWS V14.01,2013-01-10 09:52:00,
2013-01-10 03:57:00,20.8,13.9,29.38,SSW,208,7.4,7.4,74,0.00,,CLR,0.00,VWS V14.01,2013-01-10 09:57:00,
2013-01-10 04:02:00,20.6,13.4,29.38,SSW,208,7.4,7.4,73,0.00,,CLR,0.00,VWS V14.01,2013-01-10 10:02:00,
2013-01-10 04:07:00,20.8,13.9,29.38,SSW,208,7.4,7.4,74,0.00,,CLR,0.00,VWS V14.01,2013-01-10 10:07:00,
2013-01-10 04:12:00,20.8,13.9,29.38,SSW,208,7.4,7.4,74,0.00,,CLR,0.00,VWS V14.01,2013-01-10 10:12:00,
2013-01-10 04:17:00,20.8,13.9,29.38,SSW,208,7.4,7.4,74,0.00,,CLR,0.00,VWS V14.01,2013-01-10 10:17:00,
2013-01-10 04:23:00,20.8,13.9,29.38,SSW,208,7.4,7.4,74,0.00,,CLR,0.00,VWS V14.01,2013-01-10 10:23:00,
2013-01-10 04:28:00,20.6,13.7,29.38,SSW,208,7.4,7.4,74,0.00,,CLR,0.00,VWS V14.01,2013-01-10 10:28:00,
2013-01-10 04:33:00,20.6,13.7,29.38,SSW,208,7.4,7.4,74,0.00,,CLR,0.00,VWS V14.01,2013-01-10 10:33:00,
2013-01-10 04:38:00,20.6,13.7,29.38,SSW,208,7.4,7.4,74,0.00,,CLR,0.00,VWS V14.01,2013-01-10 10:38:00,
2013-01-10 04:43:00,20.8,13.9,29.38,SSW,208,7.4,7.4,74,0.00,,CLR,0.00,VWS V14.01,2013-01-10 10:43:00,
2013-01-10 04:48:00,20.6,13.7,29.38,SSW,208,7.4,7.4,74,0.00,,CLR,0.00,VWS V14.01,2013-01-10 10:48:00,
2013-01-10 04:53:00,20.5,13.2,29.38,SSW,208,7.4,7.4,73,0.00,,CLR,0.00,VWS V14.01,2013-01-10 10:53:00,
2013-01-10 04:58:00,20.5,13.5,29.38,SSW,208,7.4,7.4,74,0.00,,CLR,0.00,VWS V14.01,2013-01-10 10:58:00,
2013-01-10 05:03:00,20.5,13.5,29.38,SSW,208,7.4,7.4,74,0.00,,CLR,0.00,VWS V14.01,2013-01-10 11:03:00,
2013-01-10 05:08:00,20.6,13.7,29.38,SSW,208,7.4,7.4,74,0.00,,CLR,0.00,VWS V14.01,2013-01-10 11:08:00,
2013-01-10 05:13:00,20.6,13.7,29.38,SSW,208,7.4,7.4,74,0.00,,CLR,0.00,VWS V14.01,2013-01-10 11:13:00,
2013-01-10 05:18:00,20.8,13.9,29.35,SSW,208,7.4,7.4,74,0.00,,CLR,0.00,VWS V14.01,2013-01-10 11:18:00,
2013-01-10 05:23:00,21.0,14.0,29.35,SSW,208,7.4,7.4,74,0.00,,CLR,0.00,VWS V14.01,2013-01-10 11:23:00,
2013-01-10 05:28:00,21.5,14.6,29.35,SSW,208,7.4,7.4,74,0.00,,CLR,0.00,VWS V14.01,2013-01-10 11:28:00,
2013-01-10 05:33:00,21.7,14.7,29.35,SSW,208,7.4,7.4,74,0.00,,CLR,0.00,VWS V14.01,2013-01-10 11:33:00,
2013-01-10 05:38:00,21.9,14.6,29.35,SSW,208,7.4,7.4,73,0.00,,CLR,0.00,VWS V14.01,2013-01-10 11:38:00,
2013-01-10 05:43:00,22.1,14.8,29.35,SSW,208,7.4,7.4,73,0.00,,CLR,0.00,VWS V14.01,2013-01-10 11:43:00,
2013-01-10 05:48:00,22.3,14.9,29.35,SSW,208,7.4,7.4,73,0.00,,CLR,0.00,VWS V14.01,2013-01-10 11:48:00,
2013-01-10 05:53:00,22.1,14.4,29.35,SSW,208,7.4,7.4,72,0.00,,CLR,0.00,VWS V14.01,2013-01-10 11:53:00,
2013-01-10 05:58:00,21.9,14.3,29.35,SSW,208,7.4,7.4,72,0.00,,CLR,0.00,VWS V14.01,2013-01-10 11:58:00,
2013-01-10 06:03:00,21.9,14.3,29.35,SSW,208,7.4,7.4,72,0.00,,CLR,0.00,VWS V14.01,2013-01-10 12:03:00,
2013-01-10 06:08:00,21.9,14.3,29.35,SSW,208,7.4,7.4,72,0.00,,CLR,0.00,VWS V14.01,2013-01-10 12:08:00,
2013-01-10 06:13:00,21.7,13.8,29.35,SSW,208,7.4,7.4,71,0.00,,CLR,0.00,VWS V14.01,2013-01-10 12:13:00,
2013-01-10 06:18:00,21.9,14.0,29.35,SSW,208,7.4,7.4,71,0.00,,CLR,0.00,VWS V14.01,2013-01-10 12:18:00,
2013-01-10 06:23:00,22.1,14.1,29.35,SSW,208,7.4,7.4,71,0.00,,CLR,0.00,VWS V14.01,2013-01-10 12:23:00,
2013-01-10 06:28:00,21.9,14.0,29.35,SSW,208,7.4,7.4,71,0.00,,CLR,0.00,VWS V14.01,2013-01-10 12:28:00,
2013-01-10 06:33:00,21.9,13.6,29.35,SSW,208,7.4,7.4,70,0.00,,CLR,0.00,VWS V14.01,2013-01-10 12:33:00,
2013-01-10 06:38:00,21.9,13.6,29.35,SSW,208,7.4,7.4,70,0.00,,CLR,0.00,VWS V14.01,2013-01-10 12:38:00,
2013-01-10 06:43:00,22.1,13.8,29.35,SSW,208,7.4,7.4,70,0.00,,CLR,0.00,VWS V14.01,2013-01-10 12:43:00,
2013-01-10 06:48:00,22.4,14.5,29.35,SSW,208,7.4,7.4,71,0.00,,CLR,0.00,VWS V14.01,2013-01-10 12:48:00,
2013-01-10 06:53:00,22.6,14.3,29.35,SSW,208,7.4,7.4,70,0.00,,CLR,0.00,VWS V14.01,2013-01-10 12:53:00,
2013-01-10 06:58:00,22.6,14.3,29.35,SSW,208,7.4,7.4,70,0.00,,CLR,0.00,VWS V14.01,2013-01-10 12:58:00,
2013-01-10 07:03:00,22.6,14.0,29.35,SSW,208,7.4,7.4,69,0.00,,CLR,0.00,VWS V14.01,2013-01-10 13:03:00,
2013-01-10 07:08:00,22.4,13.8,29.35,SSW,208,7.4,7.4,69,0.00,,CLR,0.00,VWS V14.01,2013-01-10 13:08:00,
2013-01-10 07:13:00,22.4,13.8,29.35,SSW,208,7.4,7.4,69,0.00,,CLR,0.00,VWS V14.01,2013-01-10 13:13:00,
2013-01-10 07:18:00,22.4,13.5,29.35,SSW,208,7.4,7.4,68,0.00,,CLR,0.00,VWS V14.01,2013-01-10 13:18:00,
2013-01-10 07:23:00,22.4,13.5,29.35,SSW,208,7.4,7.4,68,0.00,,CLR,0.00,VWS V14.01,2013-01-10 13:23:00,
2013-01-10 07:28:00,22.6,13.7,29.35,SSW,208,7.4,7.4,68,0.00,,CLR,0.00,VWS V14.01,2013-01-10 13:28:00,
2013-01-10 07:33:00,22.8,13.8,29.35,SSW,208,7.4,7.4,68,0.00,,CLR,0.00,VWS V14.01,2013-01-10 13:33:00,
2013-01-10 07:38:00,22.8,13.8,29.35,SSW,208,7.4,7.4,68,0.00,,CLR,0.00,VWS V14.01,2013-01-10 13:38:00,
2013-01-10 07:43:00,23.0,13.7,29.35,SSW,208,7.4,7.4,67,0.00,,CLR,0.00,VWS V14.01,2013-01-10 13:43:00,
2013-01-10 07:48:00,23.3,14.0,29.35,SSW,208,7.4,7.4,67,0.00,,CLR,0.00,VWS V14.01,2013-01-10 13:48:00,
2013-01-10 07:53:00,23.5,13.9,29.35,SSW,208,7.4,7.4,66,0.00,,CLR,0.00,VWS V14.01,2013-01-10 13:53:00,
2013-01-10 07:58:00,23.7,14.0,29.35,SSW,208,7.4,7.4,66,0.00,,CLR,0.00,VWS V14.01,2013-01-10 13:58:00,
2013-01-10 08:03:00,23.9,13.8,29.35,SSW,208,7.4,7.4,65,0.00,,CLR,0.00,VWS V14.01,2013-01-10 14:03:00,
2013-01-10 08:08:00,24.1,14.0,29.35,SSW,208,7.4,7.4,65,0.00,,CLR,0.00,VWS V14.01,2013-01-10 14:08:00,
2013-01-10 08:13:00,24.1,13.3,29.35,SSW,208,7.4,7.4,63,0.00,,CLR,0.00,VWS V14.01,2013-01-10 14:13:00,
2013-01-10 08:18:00,24.2,13.5,29.35,SSW,208,7.4,7.4,63,0.00,,CLR,0.00,VWS V14.01,2013-01-10 14:18:00,
2013-01-10 08:23:00,24.4,13.3,29.35,SSW,208,7.4,7.4,62,0.00,,CLR,0.00,VWS V14.01,2013-01-10 14:23:00,
2013-01-10 08:28:00,24.8,12.9,29.35,SSW,208,7.4,7.4,60,0.00,,CLR,0.00,VWS V14.01,2013-01-10 14:28:00,
2013-01-10 08:33:00,25.0,12.3,29.35,SSW,208,7.4,7.4,58,0.00,,CLR,0.00,VWS V14.01,2013-01-10 14:33:00,
2013-01-10 08:38:00,25.1,12.4,29.35,SSW,208,7.4,7.4,58,0.00,,CLR,0.00,VWS V14.01,2013-01-10 14:38:00,
2013-01-10 08:43:00,25.5,12.4,29.35,SSW,208,7.4,7.4,57,0.00,,CLR,0.00,VWS V14.01,2013-01-10 14:43:00,
2013-01-10 08:48:00,25.7,12.2,29.35,SSW,208,7.4,7.4,56,0.00,,CLR,0.00,VWS V14.01,2013-01-10 14:48:00,
2013-01-10 08:53:00,25.9,11.9,29.35,SSW,208,7.4,7.4,55,0.00,,CLR,0.00,VWS V14.01,2013-01-10 14:53:00,
2013-01-10 08:58:00,25.9,11.9,29.35,SSW,208,7.4,7.4,55,0.00,,CLR,0.00,VWS V14.01,2013-01-10 14:58:00,
2013-01-10 09:03:00,26.2,11.9,29.35,SSW,208,7.4,7.4,54,0.00,,CLR,0.00,VWS V14.01,2013-01-10 15:03:00,
2013-01-10 09:08:00,26.6,11.8,29.35,SSW,208,7.4,7.4,53,0.00,,CLR,0.00,VWS V14.01,2013-01-10 15:08:00,
2013-01-10 09:13:00,27.1,11.8,29.35,SSW,208,7.4,7.4,52,0.00,,CLR,0.00,VWS V14.01,2013-01-10 15:13:00,
2013-01-10 09:18:00,27.5,12.2,29.32,SSW,208,7.4,7.4,52,0.00,,CLR,0.00,VWS V14.01,2013-01-10 15:18:00,
2013-01-10 09:23:00,27.7,11.9,29.32,SSW,208,7.4,7.4,51,0.00,,CLR,0.00,VWS V14.01,2013-01-10 15:23:00,
2013-01-10 09:28:00,28.2,12.0,29.32,SSW,208,7.4,7.4,50,0.00,,CLR,0.00,VWS V14.01,2013-01-10 15:28:00,
2013-01-10 09:33:00,28.6,11.8,29.32,SSW,208,7.4,7.4,49,0.00,,CLR,0.00,VWS V14.01,2013-01-10 15:33:00,
2013-01-10 09:38:00,29.1,11.4,29.32,SSW,208,7.4,7.4,47,0.00,,CLR,0.00,VWS V14.01,2013-01-10 15:38:00,
2013-01-10 09:44:00,29.5,10.8,29.32,SSW,208,7.4,7.4,45,0.00,,CLR,0.00,VWS V14.01,2013-01-10 15:44:00,
2013-01-10 09:49:00,30.0,10.7,29.32,SSW,208,7.4,7.4,44,0.00,,CLR,0.00,VWS V14.01,2013-01-10 15:49:00,
2013-01-10 09:54:00,30.4,10.6,29.32,SSW,208,7.4,7.4,43,0.00,,CLR,0.00,VWS V14.01,2013-01-10 15:54:00,
2013-01-10 09:59:00,30.9,11.1,29.32,SSW,208,7.4,7.4,43,0.00,,CLR,0.00,VWS V14.01,2013-01-10 15:59:00,
2013-01-10 10:04:00,31.3,10.9,29.32,SSW,208,7.4,7.4,42,0.00,,CLR,0.00,VWS V14.01,2013-01-10 16:04:00,
2013-01-10 10:09:00,31.6,10.6,29.32,SSW,208,7.4,7.4,41,0.00,,CLR,0.00,VWS V14.01,2013-01-10 16:09:00,
2013-01-10 10:14:00,32.0,11.0,29.32,SSW,208,7.4,7.4,41,0.00,,CLR,0.00,VWS V14.01,2013-01-10 16:14:00,
2013-01-10 10:19:00,32.2,10.6,29.32,SSW,208,7.4,7.4,40,0.00,,CLR,0.00,VWS V14.01,2013-01-10 16:19:00,
2013-01-10 10:24:00,32.5,10.9,29.32,SSW,208,7.4,7.4,40,0.00,,CLR,0.00,VWS V14.01,2013-01-10 16:24:00,
2013-01-10 10:29:00,32.9,11.2,29.32,SSW,208,7.4,7.4,40,0.00,,CLR,0.00,VWS V14.01,2013-01-10 16:29:00,
2013-01-10 10:34:00,33.1,10.8,29.32,SSW,208,7.4,7.4,39,0.00,,CLR,0.00,VWS V14.01,2013-01-10 16:34:00,
2013-01-10 10:39:00,33.4,10.6,29.32,SSW,208,7.4,7.4,38,0.00,,CLR,0.00,VWS V14.01,2013-01-10 16:39:00,
2013-01-10 10:44:00,33.8,10.9,29.32,SSW,208,7.4,7.4,38,0.00,,CLR,0.00,VWS V14.01,2013-01-10 16:44:00,
2013-01-10 10:49:00,34.0,9.8,29.29,SSW,208,7.4,7.4,36,0.00,,CLR,0.00,VWS V14.01,2013-01-10 16:49:00,
2013-01-10 10:54:00,34.3,10.1,29.29,SSW,208,7.4,7.4,36,0.00,,CLR,0.00,VWS V14.01,2013-01-10 16:54:00,
2013-01-10 10:59:00,34.7,10.5,29.29,SSW,208,7.4,7.4,36,0.00,,CLR,0.00,VWS V14.01,2013-01-10 16:59:00,
2013-01-10 11:04:00,34.9,10.0,29.29,SSW,208,7.4,7.4,35,0.00,,CLR,0.00,VWS V14.01,2013-01-10 17:04:00,
2013-01-10 11:09:00,34.9,9.4,29.29,SSW,208,7.4,7.4,34,0.00,,CLR,0.00,VWS V14.01,2013-01-10 17:09:00,
2013-01-10 11:14:00,35.0,9.5,29.29,SSW,208,7.4,7.4,34,0.00,,CLR,0.00,VWS V14.01,2013-01-10 17:14:00,
2013-01-10 11:19:00,35.4,9.2,29.26,SSW,208,7.4,7.4,33,0.00,,CLR,0.00,VWS V14.01,2013-01-10 17:19:00,
2013-01-10 11:24:00,35.6,9.3,29.26,SSW,208,7.4,7.4,33,0.00,,CLR,0.00,VWS V14.01,2013-01-10 17:24:00,
2013-01-10 11:29:00,35.8,9.5,29.26,SSW,208,7.4,7.4,33,0.00,,CLR,0.00,VWS V14.01,2013-01-10 17:29:00,
2013-01-10 11:34:00,35.9,9.6,29.26,SSW,208,7.4,7.4,33,0.00,,CLR,0.00,VWS V14.01,2013-01-10 17:34:00,
2013-01-10 11:39:00,36.1,9.8,29.26,SSW,208,7.4,7.4,33,0.00,,CLR,0.00,VWS V14.01,2013-01-10 17:39:00,
2013-01-10 11:44:00,36.3,9.3,29.26,SSW,208,7.4,7.4,32,0.00,,CLR,0.00,VWS V14.01,2013-01-10 17:44:00,
2013-01-10 11:49:00,36.5,9.4,29.23,SSW,208,7.4,7.4,32,0.00,,CLR,0.00,VWS V14.01,2013-01-10 17:49:00,
2013-01-10 11:54:00,36.7,9.6,29.23,SSW,208,7.4,7.4,32,0.00,,CLR,0.00,VWS V14.01,2013-01-10 17:54:00,
2013-01-10 11:59:00,36.7,8.9,29.23,SSW,208,7.4,7.4,31,0.00,,CLR,0.00,VWS V14.01,2013-01-10 17:59:00,
2013-01-10 12:04:00,37.0,9.2,29.23,SSW,208,7.4,7.4,31,0.00,,CLR,0.00,VWS V14.01,2013-01-10 18:04:00,
2013-01-10 12:09:00,37.4,9.5,29.23,SSW,208,7.4,7.4,31,0.00,,CLR,0.00,VWS V14.01,2013-01-10 18:09:00,
2013-01-10 12:14:00,38.1,9.4,29.23,SSW,208,7.4,7.4,30,0.00,,CLR,0.00,VWS V14.01,2013-01-10 18:14:00,
2013-01-10 12:19:00,38.5,9.7,29.23,SSW,208,7.4,7.4,30,0.00,,CLR,0.00,VWS V14.01,2013-01-10 18:19:00,
2013-01-10 12:24:00,38.6,9.9,29.23,SSW,208,7.4,7.4,30,0.00,,CLR,0.00,VWS V14.01,2013-01-10 18:24:00,
2013-01-10 12:29:00,38.6,9.9,29.23,SSW,208,7.4,7.4,30,0.00,,CLR,0.00,VWS V14.01,2013-01-10 18:29:00,
2013-01-10 12:34:00,38.8,10.1,29.21,SSW,208,7.4,7.4,30,0.00,,CLR,0.00,VWS V14.01,2013-01-10 18:34:00,
2013-01-10 12:39:00,38.8,10.1,29.21,SSW,208,7.4,7.4,30,0.00,,CLR,0.00,VWS V14.01,2013-01-10 18:39:00,
2013-01-10 12:44:00,39.2,9.6,29.21,SSW,208,7.4,7.4,29,0.00,,CLR,0.00,VWS V14.01,2013-01-10 18:44:00,
2013-01-10 12:49:00,39.7,10.1,29.18,SSW,208,7.4,7.4,29,0.00,,CLR,0.00,VWS V14.01,2013-01-10 18:49:00,
2013-01-10 12:54:00,40.1,10.4,29.18,SSW,208,7.4,7.4,29,0.00,,CLR,0.00,VWS V14.01,2013-01-10 18:54:00,
2013-01-10 12:59:00,39.5,9.9,29.18,SSW,208,7.4,7.4,29,0.00,,CLR,0.00,VWS V14.01,2013-01-10 18:59:00,
2013-01-10 13:04:00,39.2,9.6,29.18,SSW,208,7.4,7.4,29,0.00,,CLR,0.00,VWS V14.01,2013-01-10 19:04:00,
2013-01-10 13:09:00,39.4,9.8,29.18,SSW,208,7.4,7.4,29,0.00,,CLR,0.00,VWS V14.01,2013-01-10 19:09:00,
2013-01-10 13:14:00,39.5,9.9,29.18,SSW,208,7.4,7.4,29,0.00,,CLR,0.00,VWS V14.01,2013-01-10 19:14:00,
2013-01-10 13:20:00,39.4,9.8,29.18,SSW,208,7.4,7.4,29,0.00,,CLR,0.00,VWS V14.01,2013-01-10 19:20:00,
2013-01-10 13:25:00,39.4,9.8,29.18,SSW,208,7.4,7.4,29,0.00,,CLR,0.00,VWS V14.01,2013-01-10 19:25:00,
2013-01-10 13:30:00,39.2,9.6,29.18,SSW,208,7.4,7.4,29,0.00,,CLR,0.00,VWS V14.01,2013-01-10 19:30:00,
2013-01-10 13:35:00,39.0,9.4,29.15,SSW,208,7.4,7.4,29,0.00,,CLR,0.00,VWS V14.01,2013-01-10 19:35:00,
2013-01-10 13:40:00,38.8,10.1,29.15,SSW,208,7.4,7.4,30,0.00,,CLR,0.00,VWS V14.01,2013-01-10 19:40:00,
2013-01-10 13:45:00,38.6,9.9,29.15,SSW,208,7.4,7.4,30,0.00,,CLR,0.00,VWS V14.01,2013-01-10 19:45:00,
2013-01-10 13:50:00,38.5,9.7,29.15,SSW,208,7.4,7.4,30,0.00,,CLR,0.00,VWS V14.01,2013-01-10 19:50:00,
2013-01-10 13:55:00,38.6,9.9,29.15,SSW,208,7.4,7.4,30,0.00,,CLR,0.00,VWS V14.01,2013-01-10 19:55:00,
2013-01-10 14:00:00,38.6,9.9,29.15,SSW,208,7.4,7.4,30,0.00,,CLR,0.00,VWS V14.01,2013-01-10 20:00:00,
2013-01-10 14:05:00,38.5,9.7,29.18,SSW,208,7.4,7.4,30,0.00,,CLR,0.00,VWS V14.01,2013-01-10 20:05:00,
2013-01-10 14:10:00,38.1,9.4,29.18,SSW,208,7.4,7.4,30,0.00,,CLR,0.00,VWS V14.01,2013-01-10 20:10:00,
2013-01-10 14:15:00,37.9,9.3,29.18,SSW,208,7.4,7.4,30,0.00,,CLR,0.00,VWS V14.01,2013-01-10 20:15:00,
2013-01-10 14:20:00,38.1,9.4,29.15,SSW,208,7.4,7.4,30,0.00,,CLR,0.00,VWS V14.01,2013-01-10 20:20:00,
2013-01-10 14:25:00,38.1,9.4,29.15,SSW,208,7.4,7.4,30,0.00,,CLR,0.00,VWS V14.01,2013-01-10 20:25:00,
2013-01-10 14:30:00,37.9,9.3,29.15,SSW,208,7.4,7.4,30,0.00,,CLR,0.00,VWS V14.01,2013-01-10 20:30:00,
2013-01-10 14:35:00,37.7,9.1,29.15,SSW,208,7.4,7.4,30,0.00,,CLR,0.00,VWS V14.01,2013-01-10 20:35:00,
2013-01-10 14:40:00,37.7,9.1,29.15,SSW,208,7.4,7.4,30,0.00,,CLR,0.00,VWS V14.01,2013-01-10 20:40:00,
2013-01-10 14:45:00,37.7,9.1,29.15,SSW,208,7.4,7.4,30,0.00,,CLR,0.00,VWS V14.01,2013-01-10 20:45:00,
2013-01-10 14:50:00,37.7,9.1,29.15,SSW,208,7.4,7.4,30,0.00,,CLR,0.00,VWS V14.01,2013-01-10 20:50:00,
2013-01-10 14:55:00,37.6,8.9,29.15,SSW,208,7.4,7.4,30,0.00,,CLR,0.00,VWS V14.01,2013-01-10 20:55:00,
2013-01-10 15:00:00,37.4,8.8,29.15,SSW,208,7.4,7.4,30,0.00,,CLR,0.00,VWS V14.01,2013-01-10 21:00:00,
2013-01-10 15:05:00,37.2,8.6,29.15,SSW,208,7.4,7.4,30,0.00,,CLR,0.00,VWS V14.01,2013-01-10 21:05:00,
2013-01-10 15:10:00,37.2,8.6,29.15,SSW,208,7.4,7.4,30,0.00,,CLR,0.00,VWS V14.01,2013-01-10 21:10:00,
2013-01-10 15:15:00,37.0,9.2,29.15,SSW,208,7.4,7.4,31,0.00,,CLR,0.00,VWS V14.01,2013-01-10 21:15:00,
2013-01-10 15:20:00,36.7,8.9,29.12,SSW,208,7.4,7.4,31,0.00,,CLR,0.00,VWS V14.01,2013-01-10 21:20:00,
2013-01-10 15:25:00,36.7,8.9,29.12,SSW,208,7.4,7.4,31,0.00,,CLR,0.00,VWS V14.01,2013-01-10 21:25:00,
2013-01-10 15:30:00,36.5,8.7,29.12,SSW,208,7.4,7.4,31,0.00,,CLR,0.00,VWS V14.01,2013-01-10 21:30:00,
2013-01-10 15:35:00,36.5,8.7,29.12,SSW,208,7.4,7.4,31,0.00,,CLR,0.00,VWS V14.01,2013-01-10 21:35:00,
2013-01-10 15:40:00,36.5,8.7,29.12,SSW,208,7.4,7.4,31,0.00,,CLR,0.00,VWS V14.01,2013-01-10 21:40:00,
2013-01-10 15:45:00,36.5,8.7,29.12,SSW,208,7.4,7.4,31,0.00,,CLR,0.00,VWS V14.01,2013-01-10 21:45:00,
2013-01-10 15:50:00,36.3,8.6,29.12,SSW,208,7.4,7.4,31,0.00,,CLR,0.00,VWS V14.01,2013-01-10 21:50:00,
2013-01-10 15:55:00,36.3,8.6,29.12,SSW,208,7.4,7.4,31,0.00,,CLR,0.00,VWS V14.01,2013-01-10 21:55:00,
2013-01-10 16:00:00,36.1,8.4,29.12,SSW,208,7.4,7.4,31,0.00,,CLR,0.00,VWS V14.01,2013-01-10 22:00:00,
2013-01-10 16:05:00,36.1,8.4,29.09,SSW,208,7.4,7.4,31,0.00,,OVC080,0.00,VWS V14.01,2013-01-10 22:05:00,
2013-01-10 16:10:00,35.9,8.3,29.09,SSW,208,7.4,7.4,31,0.00,,OVC080,0.00,VWS V14.01,2013-01-10 22:10:00,
2013-01-10 16:15:00,35.9,8.3,29.09,SSW,208,7.4,7.4,31,0.00,,OVC080,0.00,VWS V14.01,2013-01-10 22:15:00,
2013-01-10 16:21:00,35.6,7.9,29.09,SSW,208,7.4,7.4,31,0.00,,OVC080,0.00,VWS V14.01,2013-01-10 22:21:00,
2013-01-10 16:26:00,35.6,7.9,29.09,SSW,208,7.4,7.4,31,0.00,,OVC080,0.00,VWS V14.01,2013-01-10 22:26:00,
2013-01-10 16:31:00,35.4,7.8,29.09,SSW,208,7.4,7.4,31,0.00,,OVC080,0.00,VWS V14.01,2013-01-10 22:31:00,
2013-01-10 16:36:00,35.4,7.8,29.09,SSW,208,7.4,7.4,31,0.00,,OVC080,0.00,VWS V14.01,2013-01-10 22:36:00,
2013-01-10 16:41:00,35.2,8.3,29.09,SSW,208,7.4,7.4,32,0.00,,OVC080,0.00,VWS V14.01,2013-01-10 22:41:00,
2013-01-10 16:46:00,35.2,8.3,29.09,SSW,208,7.4,7.4,32,0.00,,OVC080,0.00,VWS V14.01,2013-01-10 22:46:00,
2013-01-10 16:51:00,35.2,8.3,29.06,SSW,208,7.4,7.4,32,0.00,,OVC080,0.00,VWS V14.01,2013-01-10 22:51:00,
2013-01-10 16:56:00,35.2,8.3,29.06,SSW,208,7.4,7.4,32,0.00,,OVC080,0.00,VWS V14.01,2013-01-10 22:56:00,
2013-01-10 17:01:00,35.2,8.3,29.06,SSW,208,7.4,7.4,32,0.00,,OVC100,0.00,VWS V14.01,2013-01-10 23:01:00,
2013-01-10 17:06:00,35.2,8.3,29.06,SSW,208,7.4,7.4,32,0.00,,OVC100,0.00,VWS V14.01,2013-01-10 23:06:00,
2013-01-10 17:11:00,35.2,8.3,29.06,SSW,208,7.4,7.4,32,0.00,,OVC100,0.00,VWS V14.01,2013-01-10 23:11:00,
2013-01-10 17:16:00,35.2,9.0,29.06,SSW,208,7.4,7.4,33,0.00,,OVC100,0.00,VWS V14.01,2013-01-10 23:16:00,
2013-01-10 17:21:00,35.2,9.0,29.06,SSW,208,7.4,7.4,33,0.00,,OVC100,0.00,VWS V14.01,2013-01-10 23:21:00,
2013-01-10 17:26:00,35.2,9.0,29.06,SSW,208,7.4,7.4,33,0.00,,OVC100,0.00,VWS V14.01,2013-01-10 23:26:00,
2013-01-10 17:31:00,35.0,9.5,29.06,SSW,208,7.4,7.4,34,0.00,,OVC100,0.00,VWS V14.01,2013-01-10 23:31:00,
2013-01-10 17:36:00,34.9,10.6,29.06,SSW,208,7.4,7.4,36,0.00,,OVC100,0.00,VWS V14.01,2013-01-10 23:36:00,
2013-01-10 17:41:00,34.7,11.7,29.06,SSW,208,7.4,7.4,38,0.00,,OVC100,0.00,VWS V14.01,2013-01-10 23:41:00,
2013-01-10 17:46:00,34.7,11.7,29.06,SSW,208,7.4,7.4,38,0.00,,OVC100,0.00,VWS V14.01,2013-01-10 23:46:00,
2013-01-10 17:51:00,34.7,12.3,29.03,SSW,208,7.4,7.4,39,0.00,,OVC100,0.00,VWS V14.01,2013-01-10 23:51:00,
2013-01-10 17:56:00,34.5,12.7,29.03,SSW,208,7.4,7.4,40,0.00,,OVC100,0.00,VWS V14.01,2013-01-10 23:56:00,
2013-01-10 18:01:00,34.3,12.5,29.03,SSW,208,7.4,7.4,40,0.00,,OVC065,0.00,VWS V14.01,2013-01-11 00:01:00,
2013-01-10 18:06:00,34.3,12.5,29.03,SSW,208,7.4,7.4,40,0.00,,OVC065,0.00,VWS V14.01,2013-01-11 00:06:00,
2013-01-10 18:11:00,34.1,12.9,29.03,SSW,208,7.4,7.4,41,0.00,,OVC065,0.00,VWS V14.01,2013-01-11 00:11:00,
2013-01-10 18:16:00,34.1,12.9,29.03,SSW,208,7.4,7.4,41,0.00,,OVC065,0.00,VWS V14.01,2013-01-11 00:16:00,
2013-01-10 18:21:00,34.0,13.3,29.03,SSW,208,7.4,7.4,42,0.00,,OVC065,0.00,VWS V14.01,2013-01-11 00:21:00,
2013-01-10 18:26:00,33.8,13.7,29.03,SSW,208,7.4,7.4,43,0.00,,OVC065,0.00,VWS V14.01,2013-01-11 00:26:00,
2013-01-10 18:31:00,33.6,15.5,29.03,SSW,208,7.4,7.4,47,0.00,,OVC065,0.00,VWS V14.01,2013-01-11 00:31:00,
2013-01-10 18:36:00,33.1,16.5,29.00,SSW,208,7.4,7.4,50,0.00,,OVC065,0.00,VWS V14.01,2013-01-11 00:36:00,
2013-01-10 18:41:00,32.9,17.2,29.00,SSW,208,7.4,7.4,52,0.00,,OVC065,0.00,VWS V14.01,2013-01-11 00:41:00,
2013-01-10 18:46:00,32.5,17.7,29.00,SSW,208,7.4,7.4,54,0.00,,OVC065,0.00,VWS V14.01,2013-01-11 00:46:00,
2013-01-10 18:51:00,32.5,19.0,29.00,SSW,208,7.4,7.4,57,0.00,,OVC065,0.00,VWS V14.01,2013-01-11 00:51:00,
2013-01-10 18:56:00,32.3,19.6,29.00,SSW,208,7.4,7.4,59,0.00,,OVC065,0.00,VWS V14.01,2013-01-11 00:56:00,
2013-01-10 19:01:00,32.2,21.0,29.00,SSW,208,7.4,7.4,63,0.00,,-RA,0.00,VWS V14.01,2013-01-11 01:01:00,
2013-01-10 19:06:00,32.0,21.6,28.97,SSW,208,7.4,7.4,65,0.00,,-RA,0.00,VWS V14.01,2013-01-11 01:06:00,
2013-01-10 19:12:00,31.8,22.1,28.97,SSW,208,7.4,7.4,67,0.00,,RA,0.00,VWS V14.01,2013-01-11 01:12:00,
2013-01-10 19:17:00,31.8,22.8,28.97,SSW,208,7.4,7.4,69,0.00,,RA,0.00,VWS V14.01,2013-01-11 01:17:00,
2013-01-10 19:22:00,31.8,23.1,28.97,SSW,208,7.4,7.4,70,0.00,,RA,0.00,VWS V14.01,2013-01-11 01:22:00,
2013-01-10 19:27:00,31.8,23.8,28.97,SSW,208,7.4,7.4,72,0.00,,RA,0.00,VWS V14.01,2013-01-11 01:27:00,
2013-01-10 19:32:00,31.8,24.5,28.97,SSW,208,7.4,7.4,74,0.00,,RA,0.00,VWS V14.01,2013-01-11 01:32:00,
2013-01-10 19:37:00,31.8,24.8,28.97,SSW,208,7.4,7.4,75,0.00,,RA,0.00,VWS V14.01,2013-01-11 01:37:00,
2013-01-10 19:42:00,31.6,25.2,28.97,SSW,208,7.4,7.4,77,0.00,,RA,0.00,VWS V14.01,2013-01-11 01:42:00,
2013-01-10 19:47:00,31.8,25.4,28.97,SSW,208,7.4,7.4,77,0.00,,RA,0.00,VWS V14.01,2013-01-11 01:47:00,
2013-01-10 19:52:00,31.8,25.7,28.94,SSW,208,7.4,7.4,78,0.00,,RA,0.00,VWS V14.01,2013-01-11 01:52:00,
2013-01-10 19:57:00,31.8,25.7,28.94,SSW,208,7.4,7.4,78,0.00,,RA,0.00,VWS V14.01,2013-01-11 01:57:00,
2013-01-10 20:02:00,31.8,26.0,28.94,SSW,208,7.4,7.4,79,0.00,,RA,0.00,VWS V14.01,2013-01-11 02:02:00,
2013-01-10 20:07:00,31.8,26.4,28.94,SSW,208,7.4,7.4,80,0.00,,RA,0.00,VWS V14.01,2013-01-11 02:07:00,
2013-01-10 20:12:00,32.0,26.8,28.94,SSW,208,7.4,7.4,81,0.00,,RA,0.00,VWS V14.01,2013-01-11 02:12:00,
2013-01-10 20:17:00,32.0,26.8,28.94,SSW,208,7.4,7.4,81,0.00,,RA,0.00,VWS V14.01,2013-01-11 02:17:00,
2013-01-10 20:22:00,32.0,27.1,28.94,SSW,208,7.4,7.4,82,0.00,,RA,0.00,VWS V14.01,2013-01-11 02:22:00,
2013-01-10 20:27:00,32.2,27.6,28.94,SSW,208,7.4,7.4,83,0.00,,RA,0.00,VWS V14.01,2013-01-11 02:27:00,
2013-01-10 20:32:00,32.2,27.6,28.94,SSW,208,7.4,7.4,83,0.00,,RA,0.00,VWS V14.01,2013-01-11 02:32:00,
2013-01-10 20:37:00,32.2,27.9,28.91,SSW,208,7.4,7.4,84,0.00,,RA,0.00,VWS V14.01,2013-01-11 02:37:00,
2013-01-10 20:42:00,32.2,27.9,28.91,SSW,208,7.4,7.4,84,0.00,,RA,0.00,VWS V14.01,2013-01-11 02:42:00,
2013-01-10 20:47:00,32.2,28.2,28.91,SSW,208,7.4,7.4,85,0.00,,RA,0.00,VWS V14.01,2013-01-11 02:47:00,
2013-01-10 20:52:00,32.2,28.2,28.91,SSW,208,7.4,7.4,85,0.00,,-RA,0.00,VWS V14.01,2013-01-11 02:52:00,
2013-01-10 20:57:00,32.3,28.3,28.91,SSW,208,7.4,7.4,85,0.00,,-RA,0.00,VWS V14.01,2013-01-11 02:57:00,
2013-01-10 21:02:00,32.3,28.6,28.91,SSW,208,7.4,7.4,86,0.00,,-RA,0.00,VWS V14.01,2013-01-11 03:02:00,
2013-01-10 21:07:00,32.3,28.6,28.91,SSW,208,7.4,7.4,86,0.00,,-RA,0.00,VWS V14.01,2013-01-11 03:07:00,
2013-01-10 21:12:00,32.3,28.6,28.91,SSW,208,7.4,7.4,86,0.00,,-RA,0.00,VWS V14.01,2013-01-11 03:12:00,
2013-01-10 21:17:00,32.3,28.6,28.91,SSW,208,7.4,7.4,86,0.00,,-RA,0.00,VWS V14.01,2013-01-11 03:17:00,
2013-01-10 21:22:00,32.3,28.6,28.88,SSW,208,7.4,7.4,86,0.00,,-RA,0.00,VWS V14.01,2013-01-11 03:22:00,
2013-01-10 21:27:00,32.3,28.9,28.88,SSW,208,7.4,7.4,87,0.00,,-RA,0.00,VWS V14.01,2013-01-11 03:27:00,
2013-01-10 21:32:00,32.3,28.9,28.88,SSW,208,7.4,7.4,87,0.00,,-RA,0.00,VWS V14.01,2013-01-11 03:32:00,
2013-01-10 21:37:00,32.5,29.1,28.88,SSW,208,7.4,7.4,87,0.00,,-RA,0.00,VWS V14.01,2013-01-11 03:37:00,
2013-01-10 21:42:00,32.5,29.1,28.88,SSW,208,7.4,7.4,87,0.00,,-RA,0.00,VWS V14.01,2013-01-11 03:42:00,
2013-01-10 21:47:00,32.5,29.1,28.88,SSW,208,7.4,7.4,87,0.00,,-RA,0.00,VWS V14.01,2013-01-11 03:47:00,
2013-01-10 21:52:00,32.5,29.1,28.88,SSW,208,7.4,7.4,87,0.00,,-RA,0.00,VWS V14.01,2013-01-11 03:52:00,
2013-01-10 21:57:00,32.5,29.1,28.88,SSW,208,7.4,7.4,87,0.00,,-RA,0.00,VWS V14.01,2013-01-11 03:57:00,
2013-01-10 22:02:00,32.5,29.1,28.88,SSW,208,7.4,7.4,87,0.00,,OVC007,0.00,VWS V14.01,2013-01-11 04:02:00,
2013-01-10 22:07:00,32.5,29.1,28.88,SSW,208,7.4,7.4,87,0.00,,OVC007,0.00,VWS V14.01,2013-01-11 04:07:00,
2013-01-10 22:12:00,32.5,29.1,28.88,SSW,208,7.4,7.4,87,0.00,,OVC007,0.00,VWS V14.01,2013-01-11 04:12:00,
2013-01-10 22:17:00,32.5,29.4,28.88,SSW,208,7.4,7.4,88,0.00,,OVC007,0.00,VWS V14.01,2013-01-11 04:17:00,
2013-01-10 22:22:00,32.5,29.4,28.88,SSW,208,7.4,7.4,88,0.00,,OVC007,0.00,VWS V14.01,2013-01-11 04:22:00,
2013-01-10 22:27:00,32.5,29.4,28.88,SSW,208,7.4,7.4,88,0.00,,OVC007,0.00,VWS V14.01,2013-01-11 04:27:00,
2013-01-10 22:32:00,32.5,29.4,28.88,SSW,208,7.4,7.4,88,0.00,,OVC007,0.00,VWS V14.01,2013-01-11 04:32:00,
2013-01-10 22:37:00,32.5,29.4,28.85,SSW,208,7.4,7.4,88,0.00,,OVC007,0.00,VWS V14.01,2013-01-11 04:37:00,
2013-01-10 22:42:00,32.5,29.4,28.85,SSW,208,7.4,7.4,88,0.00,,OVC007,0.00,VWS V14.01,2013-01-11 04:42:00,
2013-01-10 22:47:00,32.5,29.4,28.85,SSW,208,7.4,7.4,88,0.00,,OVC007,0.00,VWS V14.01,2013-01-11 04:47:00,
2013-01-10 22:52:00,32.5,29.4,28.85,SSW,208,7.4,7.4,88,0.00,,OVC007,0.00,VWS V14.01,2013-01-11 04:52:00,
2013-01-10 22:57:00,32.5,29.4,28.85,SSW,208,7.4,7.4,88,0.00,,OVC007,0.00,VWS V14.01,2013-01-11 04:57:00,
2013-01-10 23:00:00,32.5,29.4,28.85,SSW,208,7.4,7.4,88,0.00,,OVC007,0.00,VWS V14.01,2013-01-11 05:00:00,
2013-01-10 23:01:00,32.5,29.4,28.85,SSW,208,7.4,7.4,88,0.00,,OVC007,0.00,VWS V14.01,2013-01-11 05:01:00,
2013-01-10 23:04:00,32.7,29.8,28.82,SSW,208,7.4,7.4,89,0.00,,OVC007,0.00,VWS V14.01,2013-01-11 05:04:00,
2013-01-10 23:09:00,32.7,29.8,28.82,SSW,208,7.4,7.4,89,0.00,,OVC007,0.00,VWS V14.01,2013-01-11 05:09:00,
2013-01-10 23:14:00,32.7,29.8,28.82,SSW,208,7.4,7.4,89,0.00,,OVC007,0.00,VWS V14.01,2013-01-11 05:14:00,
2013-01-10 23:19:00,32.7,29.8,28.82,SSW,208,7.4,7.4,89,0.00,,OVC007,0.00,VWS V14.01,2013-01-11 05:19:00,
2013-01-10 23:24:00,32.7,29.8,28.82,SSW,208,7.4,7.4,89,0.00,,OVC007,0.00,VWS V14.01,2013-01-11 05:24:00,
2013-01-10 23:29:00,32.7,29.8,28.82,SSW,208,7.4,7.4,89,0.00,,OVC007,0.00,VWS V14.01,2013-01-11 05:29:00,
2013-01-10 23:34:00,32.7,29.8,28.82,SSW,208,7.4,7.4,89,0.00,,OVC007,0.00,VWS V14.01,2013-01-11 05:34:00,
2013-01-10 23:39:00,32.7,29.8,28.82,SSW,208,7.4,7.4,89,0.00,,OVC007,0.00,VWS V14.01,2013-01-11 05:39:00,
2013-01-10 23:44:00,32.7,29.8,28.82,SSW,208,7.4,7.4,89,0.00,,OVC007,0.00,VWS V14.01,2013-01-11 05:44:00,
2013-01-10 23:49:00,32.7,29.8,28.82,SSW,208,7.4,7.4,89,0.00,,OVC007,0.00,VWS V14.01,2013-01-11 05:49:00,
2013-01-10 23:54:00,32.7,29.8,28.82,SSW,208,7.4,7.4,89,0.00,,OVC007,0.00,VWS V14.01,2013-01-11 05:54:00,
2013-01-10 23:59:00,32.7,29.8,28.82,SSW,208,7.4,7.4,89,0.00,,OVC007,0.00,VWS V14.01,2013-01-11 05:59:00,